Time;durP1;ratioP1;P1;durP2;ratioP2;P2;SDS_P1;SDS_P2;PMS_P1;PMS_P2;Temp;Humidity;BMP_temperature;BMP_pressure;BME280_temperature;BME280_humidity;BME280_pressure;Samples;Min_cycle;Max_cycle;Signal;HPM_P1;HPM_P2
2022/10/01 00:10:37;;;;;;;;;;;;;;;;;;2301611;53;1894;-70
2022/10/01 00:13:10;;;;;;;;;;;;;;;;;;2220754;58;1060;-70
2022/10/01 00:15:43;;;;;;;;;;;;;;;;;;2221304;58;1920;-71
2022/10/01 00:18:16;;;;;;;;;;;;;;;;;;2220749;58;1837;-70
2022/10/01 00:20:49;;;;;;;;;;;;;;;;;;2220832;66;1297;-70
2022/10/01 00:23:23;;;;;;;;;;;;;;;;;;2222298;58;2242;-70
2022/10/01 00:26:09;;;;;;;;;;;;;;;;;;2223537;58;1250;-70
2022/10/01 00:28:42;;;;;;;;;;;;;;;;;;2216891;66;1274;-70
2022/10/01 00:31:17;;;;;;;;;;;;;;;;;;2221202;58;1755;-70
2022/10/01 00:33:50;;;;;;;;;;;;;;;;;;2221049;66;1086;-70
2022/10/01 00:36:23;;;;;;;;;;;;;;;;;;2220874;66;1931;-70
2022/10/01 00:38:59;;;;;;;;;;;;;;;;;;2221494;58;1099;-70
2022/10/01 00:41:36;;;;;;;;;;;;;;;;;;2222140;66;1348;-70
2022/10/01 00:44:24;;;;;;;;;;;;;;;;;;2220545;66;1270;-70
2022/10/01 00:47:00;;;;;;;;;;;;;;;;;;2220872;66;2480;-70
2022/10/01 00:49:35;;;;;;;;;;;;;;;;;;2220341;58;2117;-70
2022/10/01 00:52:12;;;;;;;;;;;;;;;;;;2222754;58;2481;-70
2022/10/01 00:54:48;;;;;;;;;;;;;;;;;;2218160;59;1931;-70
2022/10/01 00:57:25;;;;;;;;;;;;;;;;;;2222161;66;1120;-70
2022/10/01 01:00:00;;;;;;;;;;;;;;;;;;2220720;58;1245;-70
2022/10/01 01:02:34;;;;;;;;;;;;;;;;;;2216859;66;1197;-70
2022/10/01 01:05:10;;;;;;;;;;;;;;;;;;2220879;58;2254;-70
2022/10/01 01:07:45;;;;;;;;;;;;;;;;;;2222052;58;1113;-70
2022/10/01 01:10:20;;;;;;;;;;;;;;;;;;2222229;58;1817;-70
2022/10/01 01:13:05;;;;;;;;;;;;;;;;;;2218088;66;1038;-70
2022/10/01 01:15:43;;;;;;;;;;;;;;;;;;2221693;58;2082;-70
2022/10/01 01:18:20;;;;;;;;;;;;;;;;;;2217417;66;1230;-71
2022/10/01 01:21:13;;;;;;;;;;;;;;;;;;2220897;58;2266;-70
2022/10/01 01:24:05;;;;;;;;;;;;;;;;;;2218622;59;1262;-70
2022/10/01 01:26:43;;;;;;;;;;;;;;;;;;2217687;58;2260;-70
2022/10/01 01:29:23;;;;;;;;;;;;;;;;;;2222516;58;1584;-70
2022/10/01 01:32:00;;;;;;;;;;;;;;;;;;2222542;58;1131;-70
2022/10/01 01:34:35;;;;;;;;;;;;;;;;;;2216665;58;1992;-70
2022/10/01 01:37:10;;;;;;;;;;;;;;;;;;2221445;59;1080;-71
2022/10/01 01:39:46;;;;;;;;;;;;;;;;;;2222726;66;1233;-70
2022/10/01 01:42:22;;;;;;;;;;;;;;;;;;2221452;66;1123;-70
2022/10/01 01:45:00;;;;;;;;;;;;;;;;;;2222193;66;1048;-70
2022/10/01 01:47:33;;;;;;;;;;;;;;;;;;2221997;66;1130;-70
2022/10/01 01:50:09;;;;;;;;;;;;;;;;;;2220267;58;1847;-70
2022/10/01 01:52:43;;;;;;;;;;;;;;;;;;2222126;66;1142;-70
2022/10/01 01:55:16;;;;;;;;;;;;;;;;;;2216835;59;1909;-70
2022/10/01 01:57:50;;;;;;;;;;;;;;;;;;2220584;66;1100;-70
2022/10/01 02:00:26;;;;;;;;;;;;;;;;;;2220633;58;1317;-70
2022/10/01 02:02:59;;;;;;;;;;;;;;;;;;2220597;66;1205;-70
2022/10/01 02:05:41;;;;;;;;;;;;;;;;;;2221245;66;1156;-70
2022/10/01 02:08:26;;;;;;;;;;;;;;;;;;2221174;58;1734;-70
2022/10/01 02:11:06;;;;;;;;;;;;;;;;;;2221037;58;1852;-70
2022/10/01 02:13:45;;;;;;;;;;;;;;;;;;2220879;66;1108;-70
2022/10/01 02:16:26;;;;;;;;;;;;;;;;;;2220297;66;1936;-70
2022/10/01 02:19:02;;;;;;;;;;;;;;;;;;2221075;66;1194;-70
2022/10/01 02:21:40;;;;;;;;;;;;;;;;;;2216541;66;1354;-70
2022/10/01 02:24:21;;;;;;;;;;;;;;;;;;2219609;58;1742;-70
2022/10/01 02:26:55;;;;;;;;;;;;;;;;;;2221813;66;1161;-70
2022/10/01 02:29:29;;;;;;;;;;;;;;;;;;2221276;58;2279;-71
2022/10/01 02:32:06;;;;;;;;;;;;;;;;;;2222140;66;1272;-70
2022/10/01 02:34:40;;;;;;;;;;;;;;;;;;2221133;58;1214;-70
2022/10/01 02:37:14;;;;;;;;;;;;;;;;;;2220717;58;1935;-70
2022/10/01 02:39:48;;;;;;;;;;;;;;;;;;2219483;58;1707;-70
2022/10/01 02:42:23;;;;;;;;;;;;;;;;;;2220495;66;1313;-70
2022/10/01 02:44:57;;;;;;;;;;;;;;;;;;2220693;59;1254;-70
2022/10/01 02:47:35;;;;;;;;;;;;;;;;;;2220965;58;1182;-70
2022/10/01 02:50:11;;;;;;;;;;;;;;;;;;2221252;58;1809;-70
2022/10/01 02:52:47;;;;;;;;;;;;;;;;;;2221935;66;1106;-70
2022/10/01 02:55:22;;;;;;;;;;;;;;;;;;2222752;66;1940;-70
2022/10/01 02:57:53;;;;;;;;;;;;;;;;;;2222627;66;1228;-70
2022/10/01 03:00:27;;;;;;;;;;;;;;;;;;2222229;66;1182;-70
2022/10/01 03:03:03;;;;;;;;;;;;;;;;;;2222233;58;1191;-70
2022/10/01 03:05:36;;;;;;;;;;;;;;;;;;2221103;58;1760;-70
2022/10/01 03:08:09;;;;;;;;;;;;;;;;;;2222423;58;2336;-70
2022/10/01 03:10:43;;;;;;;;;;;;;;;;;;2221051;58;2023;-70
2022/10/01 03:13:17;;;;;;;;;;;;;;;;;;2222188;58;2247;-70
2022/10/01 03:15:51;;;;;;;;;;;;;;;;;;2218261;58;2037;-70
2022/10/01 03:18:27;;;;;;;;;;;;;;;;;;2221306;66;1246;-71
2022/10/01 03:21:00;;;;;;;;;;;;;;;;;;2221320;58;1195;-70
2022/10/01 03:23:33;;;;;;;;;;;;;;;;;;2221447;66;1237;-70
2022/10/01 03:26:06;;;;;;;;;;;;;;;;;;2221441;58;1084;-70
2022/10/01 03:28:40;;;;;;;;;;;;;;;;;;2217487;66;1252;-70
2022/10/01 03:31:13;;;;;;;;;;;;;;;;;;2221654;58;1722;-71
2022/10/01 03:33:49;;;;;;;;;;;;;;;;;;2222362;58;2381;-70
2022/10/01 03:36:22;;;;;;;;;;;;;;;;;;2217492;58;2140;-70
2022/10/01 03:38:55;;;;;;;;;;;;;;;;;;2223157;58;1566;-70
2022/10/01 03:41:28;;;;;;;;;;;;;;;;;;2221793;58;1315;-70
2022/10/01 03:44:01;;;;;;;;;;;;;;;;;;2222076;66;1125;-70
2022/10/01 03:46:35;;;;;;;;;;;;;;;;;;2222226;58;1405;-70
2022/10/01 03:49:11;;;;;;;;;;;;;;;;;;2221411;66;1347;-70
2022/10/01 03:51:44;;;;;;;;;;;;;;;;;;2221865;58;2004;-70
2022/10/01 03:54:19;;;;;;;;;;;;;;;;;;2221546;58;1133;-71
2022/10/01 03:56:52;;;;;;;;;;;;;;;;;;2221479;58;1935;-70
2022/10/01 03:59:26;;;;;;;;;;;;;;;;;;2218490;66;1222;-70
2022/10/01 04:01:59;;;;;;;;;;;;;;;;;;2223060;58;2814;-70
2022/10/01 04:04:35;;;;;;;;;;;;;;;;;;2222490;58;2121;-71
2022/10/01 04:07:08;;;;;;;;;;;;;;;;;;2222915;58;1746;-71
2022/10/01 04:09:41;;;;;;;;;;;;;;;;;;2222246;58;1848;-70
2022/10/01 04:12:14;;;;;;;;;;;;;;;;;;2222536;59;1120;-70
2022/10/01 04:14:47;;;;;;;;;;;;;;;;;;2218307;58;2302;-70
2022/10/01 04:17:21;;;;;;;;;;;;;;;;;;2223710;58;1935;-71
2022/10/01 04:19:59;;;;;;;;;;;;;;;;;;2223638;58;1132;-70
2022/10/01 04:22:32;;;;;;;;;;;;;;;;;;2223071;66;1738;-71
2022/10/01 04:25:05;;;;;;;;;;;;;;;;;;2223857;58;1260;-70
2022/10/01 04:27:38;;;;;;;;;;;;;;;;;;2222519;66;1057;-70
2022/10/01 04:30:12;;;;;;;;;;;;;;;;;;2222086;58;2408;-70
2022/10/01 04:32:45;;;;;;;;;;;;;;;;;;2222072;59;1192;-70
2022/10/01 04:35:21;;;;;;;;;;;;;;;;;;2222965;58;1616;-70
2022/10/01 04:38:00;;;;;;;;;;;;;;;;;;2223916;58;1978;-71
2022/10/01 04:40:34;;;;;;;;;;;;;;;;;;2223401;66;1309;-71
2022/10/01 04:43:08;;;;;;;;;;;;;;;;;;2223269;66;1322;-71
2022/10/01 04:45:41;;;;;;;;;;;;;;;;;;2217565;66;1208;-71
2022/10/01 04:48:14;;;;;;;;;;;;;;;;;;2221455;59;1128;-70
2022/10/01 04:50:50;;;;;;;;;;;;;;;;;;2221507;58;1758;-70
2022/10/01 04:53:24;;;;;;;;;;;;;;;;;;2222559;58;2287;-70
2022/10/01 04:55:57;;;;;;;;;;;;;;;;;;2223088;58;2136;-70
2022/10/01 04:58:30;;;;;;;;;;;;;;;;;;2221882;58;1102;-71
2022/10/01 05:01:03;;;;;;;;;;;;;;;;;;2219222;59;1710;-70
2022/10/01 05:03:36;;;;;;;;;;;;;;;;;;2222190;58;2189;-71
2022/10/01 05:06:12;;;;;;;;;;;;;;;;;;2221967;58;1505;-70
2022/10/01 05:08:48;;;;;;;;;;;;;;;;;;2218166;58;1676;-70
2022/10/01 05:11:21;;;;;;;;;;;;;;;;;;2222093;58;1867;-70
2022/10/01 05:13:54;;;;;;;;;;;;;;;;;;2218427;66;1497;-70
2022/10/01 05:16:28;;;;;;;;;;;;;;;;;;2222417;66;1928;-70
2022/10/01 05:19:01;;;;;;;;;;;;;;;;;;2221157;66;1199;-70
2022/10/01 05:21:38;;;;;;;;;;;;;;;;;;2220671;59;1239;-71
2022/10/01 05:24:11;;;;;;;;;;;;;;;;;;2220635;59;1299;-71
2022/10/01 05:26:44;;;;;;;;;;;;;;;;;;2222188;66;1206;-70
2022/10/01 05:29:17;;;;;;;;;;;;;;;;;;2220411;58;1712;-71
2022/10/01 05:31:51;;;;;;;;;;;;;;;;;;2222098;58;1798;-70
2022/10/01 05:34:24;;;;;;;;;;;;;;;;;;2221244;58;1258;-70
2022/10/01 05:37:01;;;;;;;;;;;;;;;;;;2221376;58;1932;-70
2022/10/01 05:39:34;;;;;;;;;;;;;;;;;;2222135;66;1221;-70
2022/10/01 05:42:08;;;;;;;;;;;;;;;;;;2222490;58;2576;-70
2022/10/01 05:44:44;;;;;;;;;;;;;;;;;;2222661;58;1189;-71
2022/10/01 05:47:19;;;;;;;;;;;;;;;;;;2222170;58;1167;-70
2022/10/01 05:49:52;;;;;;;;;;;;;;;;;;2220955;58;1699;-71
2022/10/01 05:52:28;;;;;;;;;;;;;;;;;;2221655;59;1148;-70
2022/10/01 05:55:01;;;;;;;;;;;;;;;;;;2222260;58;2577;-70
2022/10/01 05:57:34;;;;;;;;;;;;;;;;;;2222211;58;2068;-70
2022/10/01 06:00:08;;;;;;;;;;;;;;;;;;2220624;66;1288;-70
2022/10/01 06:02:41;;;;;;;;;;;;;;;;;;2221106;58;2513;-70
2022/10/01 06:05:14;;;;;;;;;;;;;;;;;;2223774;58;2078;-71
2022/10/01 06:07:50;;;;;;;;;;;;;;;;;;2222843;58;1186;-70
2022/10/01 08:05:20;;;;;;;;;;;;;;;;;;2328331;53;2064;-75
2022/10/01 08:07:53;;;;;;;;;;;;;;;;;;2222406;58;2359;-76
2022/10/01 08:10:27;;;;;;;;;;;;;;;;;;2223068;66;1185;-75
2022/10/01 08:13:05;;;;;;;;;;;;;;;;;;2224037;66;1246;-76
2022/10/01 08:15:38;;;;;;;;;;;;;;;;;;2222575;58;1235;-75
2022/10/01 08:18:11;;;;;;;;;;;;;;;;;;2219418;59;1993;-75
2022/10/01 08:20:47;;;;;;;;;;;;;;;;;;2219278;66;1255;-75
2022/10/01 08:23:20;;;;;;;;;;;;;;;;;;2219819;58;1740;-76
2022/10/01 08:25:53;;;;;;;;;;;;;;;;;;2220214;58;1988;-75
2022/10/01 08:28:27;;;;;;;;;;;;;;;;;;2220627;58;1679;-75
2022/10/01 08:31:00;;;;;;;;;;;;;;;;;;2220684;66;1075;-75
2022/10/01 08:33:33;;;;;;;;;;;;;;;;;;2220323;58;2274;-76
2022/10/01 08:36:10;;;;;;;;;;;;;;;;;;2220103;58;2102;-77
2022/10/01 08:38:46;;;;;;;;;;;;;;;;;;2220086;58;1977;-75
2022/10/01 08:41:24;;;;;;;;;;;;;;;;;;2220744;58;3043;-76
2022/10/01 08:43:58;;;;;;;;;;;;;;;;;;2220634;58;1439;-75
2022/10/01 08:46:33;;;;;;;;;;;;;;;;;;2218928;58;2137;-76
2022/10/01 08:49:14;;;;;;;;;;;;;;;;;;2221025;59;1333;-77
2022/10/01 08:51:53;;;;;;;;;;;;;;;;;;2221430;66;1257;-78
2022/10/01 08:54:31;;;;;;;;;;;;;;;;;;2214089;58;1381;-82
2022/10/01 08:57:06;;;;;;;;;;;;;;;;;;2217499;58;2608;-74
2022/10/01 08:59:41;;;;;;;;;;;;;;;;;;2216247;58;2569;-75
2022/10/01 09:02:20;;;;;;;;;;;;;;;;;;2217155;58;2323;-75
2022/10/01 09:04:56;;;;;;;;;;;;;;;;;;2217870;58;2827;-77
2022/10/01 09:07:38;;;;;;;;;;;;;;;;;;2219654;66;1170;-75
2022/10/01 09:10:23;;;;;;;;;;;;;;;;;;2217755;58;2399;-76
2022/10/01 09:13:06;;;;;;;;;;;;;;;;;;2219992;58;2525;-76
2022/10/01 09:15:44;;;;;;;;;;;;;;;;;;2219996;58;2151;-76
2022/10/01 09:18:24;;;;;;;;;;;;;;;;;;2219573;58;2235;-76
2022/10/01 09:20:58;;;;;;;;;;;;;;;;;;2217589;66;1451;-78
2022/10/01 09:23:40;;;;;;;;;;;;;;;;;;2220896;58;2450;-76
2022/10/01 09:26:14;;;;;;;;;;;;;;;;;;2219953;58;1722;-79
2022/10/01 09:28:48;;;;;;;;;;;;;;;;;;2219203;58;1953;-75
2022/10/01 09:31:26;;;;;;;;;;;;;;;;;;2220396;66;1200;-78
2022/10/01 09:34:03;;;;;;;;;;;;;;;;;;2221075;66;1227;-75
2022/10/01 09:36:39;;;;;;;;;;;;;;;;;;2217625;59;1942;-75
2022/10/01 09:39:20;;;;;;;;;;;;;;;;;;2220311;58;1694;-75
2022/10/01 09:41:53;;;;;;;;;;;;;;;;;;2220441;58;2220;-77
2022/10/01 09:44:28;;;;;;;;;;;;;;;;;;2219698;58;1677;-75
2022/10/01 09:47:01;;;;;;;;;;;;;;;;;;2220455;58;1706;-76
2022/10/01 09:49:38;;;;;;;;;;;;;;;;;;2220113;58;2268;-76
2022/10/01 09:52:14;;;;;;;;;;;;;;;;;;2220687;58;2351;-77
2022/10/01 09:54:54;;;;;;;;;;;;;;;;;;2221046;66;1298;-76
2022/10/01 09:57:30;;;;;;;;;;;;;;;;;;2220080;58;2763;-75
2022/10/01 10:00:11;;;;;;;;;;;;;;;;;;2220169;58;2361;-75
2022/10/01 10:02:45;;;;;;;;;;;;;;;;;;2220088;58;2381;-77
2022/10/01 10:05:20;;;;;;;;;;;;;;;;;;2219728;58;2340;-76
2022/10/01 10:07:54;;;;;;;;;;;;;;;;;;2219486;58;2482;-80
2022/10/01 10:10:34;;;;;;;;;;;;;;;;;;2220739;58;2677;-75
2022/10/01 10:13:20;;;;;;;;;;;;;;;;;;2220847;58;2135;-77
2022/10/01 10:15:56;;;;;;;;;;;;;;;;;;2220363;58;2684;-78
2022/10/01 10:18:33;;;;;;;;;;;;;;;;;;2220538;66;1936;-80
2022/10/01 10:21:09;;;;;;;;;;;;;;;;;;2220893;58;2229;-76
2022/10/01 10:23:50;;;;;;;;;;;;;;;;;;2221123;58;2330;-77
2022/10/01 10:26:30;;;;;;;;;;;;;;;;;;2220154;58;2218;-77
2022/10/01 10:29:06;;;;;;;;;;;;;;;;;;2219781;58;2149;-77
2022/10/01 10:31:41;;;;;;;;;;;;;;;;;;2219300;58;2454;-82
2022/10/01 10:34:17;;;;;;;;;;;;;;;;;;2218889;58;2177;-76
2022/10/01 10:36:52;;;;;;;;;;;;;;;;;;2219135;58;2356;-75
2022/10/01 10:39:28;;;;;;;;;;;;;;;;;;2219412;58;2695;-77
2022/10/01 10:42:05;;;;;;;;;;;;;;;;;;2216848;59;1970;-77
2022/10/01 10:44:39;;;;;;;;;;;;;;;;;;2219629;58;2274;-76
2022/10/01 10:47:14;;;;;;;;;;;;;;;;;;2220408;58;1485;-76
2022/10/01 10:49:49;;;;;;;;;;;;;;;;;;2220260;58;2406;-76
2022/10/01 10:52:24;;;;;;;;;;;;;;;;;;2217814;58;1525;-76
2022/10/01 10:54:59;;;;;;;;;;;;;;;;;;2216618;58;2537;-79
2022/10/01 10:57:36;;;;;;;;;;;;;;;;;;2219223;58;2414;-75
2022/10/01 11:00:15;;;;;;;;;;;;;;;;;;2219609;58;2102;-77
2022/10/01 11:02:54;;;;;;;;;;;;;;;;;;2218372;58;2581;-76
2022/10/01 11:05:30;;;;;;;;;;;;;;;;;;2218312;58;2378;-78
2022/10/01 11:08:05;;;;;;;;;;;;;;;;;;2220160;58;2381;-76
2022/10/01 11:10:42;;;;;;;;;;;;;;;;;;2218638;58;2732;-76
2022/10/01 11:13:24;;;;;;;;;;;;;;;;;;2219650;58;2376;-76
2022/10/01 11:16:19;;;;;;;;;;;;;;;;;;2219398;58;2140;-76
2022/10/01 11:19:01;;;;;;;;;;;;;;;;;;2219964;58;2200;-75
2022/10/01 11:21:47;;;;;;;;;;;;;;;;;;2219311;58;2090;-78
2022/10/01 11:24:28;;;;;;;;;;;;;;;;;;2219254;58;1770;-77
2022/10/01 11:27:07;;;;;;;;;;;;;;;;;;2219478;58;2611;-76
2022/10/01 11:29:50;;;;;;;;;;;;;;;;;;2219069;58;2091;-75
2022/10/01 11:32:28;;;;;;;;;;;;;;;;;;2217046;58;2634;-76
2022/10/01 11:35:12;;;;;;;;;;;;;;;;;;2218498;58;2498;-76
2022/10/01 11:37:52;;;;;;;;;;;;;;;;;;2219736;58;2234;-76
2022/10/01 11:40:28;;;;;;;;;;;;;;;;;;2215928;59;1257;-74
2022/10/01 11:43:03;;;;;;;;;;;;;;;;;;2219358;66;1242;-76
2022/10/01 11:45:44;;;;;;;;;;;;;;;;;;2219703;58;1680;-76
2022/10/01 11:48:22;;;;;;;;;;;;;;;;;;2221258;66;1159;-76
2022/10/01 11:50:59;;;;;;;;;;;;;;;;;;2221636;58;1425;-75
2022/10/01 11:53:35;;;;;;;;;;;;;;;;;;2221883;66;989;-74
2022/10/01 11:59:02;;;;;;;;;;;;;;;;;;2219723;58;1998;-74
2022/10/01 12:01:41;;;;;;;;;;;;;;;;;;2217014;59;1767;-74
2022/10/01 12:04:20;;;;;;;;;;;;;;;;;;2220113;58;2539;-74
2022/10/01 12:06:57;;;;;;;;;;;;;;;;;;2221312;66;2960;-75
2022/10/01 12:09:34;;;;;;;;;;;;;;;;;;2221111;66;1132;-74
2022/10/01 12:12:11;;;;;;;;;;;;;;;;;;2221783;58;2148;-74
2022/10/01 12:14:47;;;;;;;;;;;;;;;;;;2220796;58;1242;-75
2022/10/01 12:17:26;;;;;;;;;;;;;;;;;;2221817;58;1290;-75
2022/10/01 12:20:00;;;;;;;;;;;;;;;;;;2220541;59;1940;-76
2022/10/01 12:22:35;;;;;;;;;;;;;;;;;;2221176;66;1474;-75
2022/10/01 12:25:12;;;;;;;;;;;;;;;;;;2221709;58;1880;-75
2022/10/01 12:27:57;;;;;;;;;;;;;;;;;;2220868;58;1606;-75
2022/10/01 12:30:33;;;;;;;;;;;;;;;;;;2218943;58;1891;-75
2022/10/01 12:33:26;;;;;;;;;;;;;;;;;;2219414;66;1631;-74
2022/10/01 12:36:04;;;;;;;;;;;;;;;;;;2219794;58;1793;-75
2022/10/01 12:38:44;;;;;;;;;;;;;;;;;;2220884;58;1983;-75
2022/10/01 12:41:26;;;;;;;;;;;;;;;;;;2220436;58;2201;-76
2022/10/01 12:44:03;;;;;;;;;;;;;;;;;;2220927;58;1265;-76
2022/10/01 12:46:41;;;;;;;;;;;;;;;;;;2220110;58;1933;-76
2022/10/01 12:49:22;;;;;;;;;;;;;;;;;;2221201;66;1090;-75
2022/10/01 12:51:59;;;;;;;;;;;;;;;;;;2217772;58;2294;-75
2022/10/01 12:54:42;;;;;;;;;;;;;;;;;;2221618;58;2407;-76
2022/10/01 12:57:27;;;;;;;;;;;;;;;;;;2220516;58;2197;-74
2022/10/01 13:00:06;;;;;;;;;;;;;;;;;;2220153;58;2267;-77
2022/10/01 13:02:57;;;;;;;;;;;;;;;;;;2220574;58;2627;-75
2022/10/01 13:05:39;;;;;;;;;;;;;;;;;;2219522;58;2578;-75
2022/10/01 13:08:23;;;;;;;;;;;;;;;;;;2219606;58;2585;-76
2022/10/01 13:11:04;;;;;;;;;;;;;;;;;;2219629;58;2556;-78
2022/10/01 13:13:37;;;;;;;;;;;;;;;;;;2220662;58;2171;-75
2022/10/01 13:16:13;;;;;;;;;;;;;;;;;;2217272;59;1285;-75
2022/10/01 13:18:56;;;;;;;;;;;;;;;;;;2218537;58;2391;-76
2022/10/01 13:21:38;;;;;;;;;;;;;;;;;;2221033;66;1070;-77
2022/10/01 13:24:16;;;;;;;;;;;;;;;;;;2219933;58;1707;-76
2022/10/01 13:26:54;;;;;;;;;;;;;;;;;;2219154;58;1195;-76
2022/10/01 13:29:34;;;;;;;;;;;;;;;;;;2219737;66;1238;-77
2022/10/01 13:32:24;;;;;;;;;;;;;;;;;;2219302;58;1547;-76
2022/10/01 13:34:58;;;;;;;;;;;;;;;;;;2219868;58;1310;-76
2022/10/01 13:37:39;;;;;;;;;;;;;;;;;;2219294;58;2326;-76
2022/10/01 13:40:27;;;;;;;;;;;;;;;;;;2219292;58;2022;-76
2022/10/01 13:43:02;;;;;;;;;;;;;;;;;;2220000;58;2349;-75
2022/10/01 13:45:42;;;;;;;;;;;;;;;;;;2219208;58;1573;-77
2022/10/01 13:48:19;;;;;;;;;;;;;;;;;;2220339;58;1679;-76
2022/10/01 13:50:57;;;;;;;;;;;;;;;;;;2220342;58;1483;-75
2022/10/01 13:53:34;;;;;;;;;;;;;;;;;;2220084;66;1239;-77
2022/10/01 13:56:11;;;;;;;;;;;;;;;;;;2219957;58;1225;-78
2022/10/01 13:58:45;;;;;;;;;;;;;;;;;;2220280;58;2723;-75
2022/10/01 14:01:29;;;;;;;;;;;;;;;;;;2221494;58;2397;-76
2022/10/01 14:04:06;;;;;;;;;;;;;;;;;;2216101;58;2563;-73
2022/10/01 16:11:56;;;;;;;;;;;;;;;;;;2214620;59;1778;-76
2022/10/01 16:14:33;;;;;;;;;;;;;;;;;;2217033;59;1181;-80
2022/10/01 16:17:25;;;;;;;;;;;;;;;;;;2217128;58;1305;-74
2022/10/01 16:19:59;;;;;;;;;;;;;;;;;;2216877;58;1985;-76
2022/10/01 16:22:34;;;;;;;;;;;;;;;;;;2215903;66;1123;-77
2022/10/01 16:25:27;;;;;;;;;;;;;;;;;;2216190;58;2330;-74
2022/10/01 16:28:04;;;;;;;;;;;;;;;;;;2216177;59;1474;-76
2022/10/01 16:30:37;;;;;;;;;;;;;;;;;;2215015;58;1616;-77
2022/10/01 16:33:12;;;;;;;;;;;;;;;;;;2215319;66;1203;-82
2022/10/01 16:35:46;;;;;;;;;;;;;;;;;;2215251;58;1219;-76
2022/10/01 16:38:19;;;;;;;;;;;;;;;;;;2216394;59;1170;-75
2022/10/01 16:40:52;;;;;;;;;;;;;;;;;;2215245;59;1214;-77
2022/10/01 16:43:28;;;;;;;;;;;;;;;;;;2216138;58;1370;-74
2022/10/01 16:46:01;;;;;;;;;;;;;;;;;;2215590;58;1241;-76
2022/10/01 16:48:34;;;;;;;;;;;;;;;;;;2216604;58;2362;-76
2022/10/01 16:51:07;;;;;;;;;;;;;;;;;;2215459;58;1528;-76
2022/10/01 16:53:41;;;;;;;;;;;;;;;;;;2212497;59;2771;-82
2022/10/01 16:56:15;;;;;;;;;;;;;;;;;;2217137;58;2311;-78
2022/10/01 16:58:51;;;;;;;;;;;;;;;;;;2216207;58;1976;-77
2022/10/01 17:01:24;;;;;;;;;;;;;;;;;;2217426;58;1271;-77
2022/10/01 17:03:58;;;;;;;;;;;;;;;;;;2216491;59;1246;-77
2022/10/01 17:06:31;;;;;;;;;;;;;;;;;;2216297;59;1120;-77
2022/10/01 17:09:04;;;;;;;;;;;;;;;;;;2212139;59;1654;-75
2022/10/01 17:11:38;;;;;;;;;;;;;;;;;;2215673;58;2008;-78
2022/10/01 17:14:16;;;;;;;;;;;;;;;;;;2216394;58;1164;-78
2022/10/01 17:16:49;;;;;;;;;;;;;;;;;;2215366;66;1214;-77
2022/10/01 17:19:23;;;;;;;;;;;;;;;;;;2214922;58;1979;-77
2022/10/01 17:21:56;;;;;;;;;;;;;;;;;;2216715;66;1103;-76
2022/10/01 17:24:31;;;;;;;;;;;;;;;;;;2216283;66;1219;-76
2022/10/01 17:27:04;;;;;;;;;;;;;;;;;;2211588;66;2162;-78
2022/10/01 17:29:40;;;;;;;;;;;;;;;;;;2212223;58;1916;-76
2022/10/01 17:32:17;;;;;;;;;;;;;;;;;;2216639;58;2780;-76
2022/10/01 17:34:53;;;;;;;;;;;;;;;;;;2215572;58;1221;-75
2022/10/01 17:37:26;;;;;;;;;;;;;;;;;;2215575;58;2028;-76
2022/10/01 17:39:59;;;;;;;;;;;;;;;;;;2222153;53;2334;-76
2022/10/01 17:42:34;;;;;;;;;;;;;;;;;;2218070;58;1170;-76
2022/10/01 17:45:12;;;;;;;;;;;;;;;;;;2218627;58;1396;-76
2022/10/01 17:47:46;;;;;;;;;;;;;;;;;;2218511;58;1243;-76
2022/10/01 17:50:19;;;;;;;;;;;;;;;;;;2216280;59;1534;-77
2022/10/01 17:52:52;;;;;;;;;;;;;;;;;;2214380;59;1154;-76
2022/10/01 17:55:26;;;;;;;;;;;;;;;;;;2215921;66;1227;-76
2022/10/01 17:57:59;;;;;;;;;;;;;;;;;;2215106;59;1349;-75
2022/10/01 18:00:35;;;;;;;;;;;;;;;;;;2212918;59;1931;-75
2022/10/01 18:03:08;;;;;;;;;;;;;;;;;;2215269;59;1511;-76
2022/10/01 18:05:42;;;;;;;;;;;;;;;;;;2214758;66;1147;-76
2022/10/01 18:08:15;;;;;;;;;;;;;;;;;;2214842;66;1093;-76
2022/10/01 18:10:48;;;;;;;;;;;;;;;;;;2211176;59;1743;-76
2022/10/01 18:13:21;;;;;;;;;;;;;;;;;;2214823;58;2036;-77
2022/10/01 18:16:03;;;;;;;;;;;;;;;;;;2213632;58;1178;-75
2022/10/01 18:18:36;;;;;;;;;;;;;;;;;;2213504;58;1182;-76
2022/10/01 18:21:12;;;;;;;;;;;;;;;;;;2214272;66;1936;-77
2022/10/01 18:23:45;;;;;;;;;;;;;;;;;;2211246;59;1221;-75
2022/10/01 18:26:19;;;;;;;;;;;;;;;;;;2214285;66;1183;-76
2022/10/01 18:28:52;;;;;;;;;;;;;;;;;;2214688;66;1017;-76
2022/10/01 18:31:28;;;;;;;;;;;;;;;;;;2214157;58;1581;-76
2022/10/01 18:34:03;;;;;;;;;;;;;;;;;;2212920;59;1298;-77
2022/10/01 18:36:41;;;;;;;;;;;;;;;;;;2214378;59;1193;-76
2022/10/01 18:39:17;;;;;;;;;;;;;;;;;;2214303;66;1944;-77
2022/10/01 18:41:50;;;;;;;;;;;;;;;;;;2215589;59;1289;-76
2022/10/01 18:44:24;;;;;;;;;;;;;;;;;;2214721;66;1230;-76
2022/10/01 18:47:06;;;;;;;;;;;;;;;;;;2214642;59;1302;-75
2022/10/01 18:49:49;;;;;;;;;;;;;;;;;;2213755;59;1685;-78
2022/10/01 18:52:28;;;;;;;;;;;;;;;;;;2214951;59;1296;-77
2022/10/01 18:55:11;;;;;;;;;;;;;;;;;;2213927;59;1074;-77
2022/10/01 18:57:51;;;;;;;;;;;;;;;;;;2215036;66;1243;-75
2022/10/01 19:00:26;;;;;;;;;;;;;;;;;;2214762;66;1935;-77
2022/10/01 19:03:11;;;;;;;;;;;;;;;;;;2214600;66;1230;-77
2022/10/01 19:06:03;;;;;;;;;;;;;;;;;;2214798;66;1196;-73
2022/10/01 19:08:48;;;;;;;;;;;;;;;;;;2214773;59;1126;-76
2022/10/01 19:11:27;;;;;;;;;;;;;;;;;;2214964;58;1710;-79
2022/10/01 19:14:12;;;;;;;;;;;;;;;;;;2213622;58;1271;-76
2022/10/01 19:16:51;;;;;;;;;;;;;;;;;;2214121;59;1231;-77
2022/10/01 19:19:37;;;;;;;;;;;;;;;;;;2213887;66;1945;-77
2022/10/01 19:22:16;;;;;;;;;;;;;;;;;;2214421;66;1195;-77
2022/10/01 19:24:57;;;;;;;;;;;;;;;;;;2214890;66;1217;-77
2022/10/01 19:27:39;;;;;;;;;;;;;;;;;;2212857;58;2824;-77
2022/10/01 19:30:14;;;;;;;;;;;;;;;;;;2213155;59;1692;-77
2022/10/01 19:32:49;;;;;;;;;;;;;;;;;;2212740;59;1286;-76
2022/10/01 19:35:28;;;;;;;;;;;;;;;;;;2214195;59;1174;-77
2022/10/01 19:38:04;;;;;;;;;;;;;;;;;;2214770;58;2121;-76
2022/10/01 19:40:45;;;;;;;;;;;;;;;;;;2219096;53;1932;-76
2022/10/01 19:43:24;;;;;;;;;;;;;;;;;;2220071;66;1197;-75
2022/10/01 19:46:07;;;;;;;;;;;;;;;;;;2222460;58;1201;-75
2022/10/01 19:48:48;;;;;;;;;;;;;;;;;;2222617;66;1111;-76
2022/10/01 19:51:26;;;;;;;;;;;;;;;;;;2215326;58;1793;-75
2022/10/01 19:54:01;;;;;;;;;;;;;;;;;;2216673;58;1186;-75
2022/10/01 19:56:37;;;;;;;;;;;;;;;;;;2213771;66;1153;-74
2022/10/01 19:59:14;;;;;;;;;;;;;;;;;;2217325;66;1188;-76
2022/10/01 20:01:53;;;;;;;;;;;;;;;;;;2212547;66;1948;-75
2022/10/01 20:04:33;;;;;;;;;;;;;;;;;;2212579;66;1148;-75
2022/10/01 20:07:13;;;;;;;;;;;;;;;;;;2212946;67;1210;-76
2022/10/01 20:09:47;;;;;;;;;;;;;;;;;;2216412;58;2318;-76
2022/10/01 20:12:31;;;;;;;;;;;;;;;;;;2217501;58;2095;-75
2022/10/01 20:15:13;;;;;;;;;;;;;;;;;;2212733;59;2299;-75
2022/10/01 20:17:53;;;;;;;;;;;;;;;;;;2216117;59;1204;-74
2022/10/01 20:20:32;;;;;;;;;;;;;;;;;;2215545;58;2346;-74
2022/10/01 20:23:16;;;;;;;;;;;;;;;;;;2214607;58;1197;-74
2022/10/01 20:25:52;;;;;;;;;;;;;;;;;;2217746;58;1113;-74
2022/10/01 20:28:27;;;;;;;;;;;;;;;;;;2216235;59;1091;-75
2022/10/01 20:31:05;;;;;;;;;;;;;;;;;;2216659;58;1867;-74
2022/10/01 20:33:44;;;;;;;;;;;;;;;;;;2215828;58;1250;-74
2022/10/01 20:36:20;;;;;;;;;;;;;;;;;;2215412;58;1274;-75
2022/10/01 20:39:03;;;;;;;;;;;;;;;;;;2211997;66;1185;-73
2022/10/01 20:41:41;;;;;;;;;;;;;;;;;;2212801;59;1940;-73
2022/10/01 20:44:16;;;;;;;;;;;;;;;;;;2211875;66;1304;-74
2022/10/01 20:46:51;;;;;;;;;;;;;;;;;;2212750;59;1232;-74
2022/10/01 20:49:28;;;;;;;;;;;;;;;;;;2215239;58;1711;-74
2022/10/01 20:52:04;;;;;;;;;;;;;;;;;;2216221;58;1422;-74
2022/10/01 20:54:42;;;;;;;;;;;;;;;;;;2217272;59;1449;-75
2022/10/01 20:57:19;;;;;;;;;;;;;;;;;;2215606;66;1191;-74
2022/10/01 20:59:54;;;;;;;;;;;;;;;;;;2216788;66;1933;-73
2022/10/01 21:02:31;;;;;;;;;;;;;;;;;;2217317;66;1076;-73
2022/10/01 21:05:06;;;;;;;;;;;;;;;;;;2218130;66;1197;-76
2022/10/01 21:07:43;;;;;;;;;;;;;;;;;;2216835;59;1194;-74
2022/10/01 21:10:23;;;;;;;;;;;;;;;;;;2216172;58;1622;-73
2022/10/01 21:13:00;;;;;;;;;;;;;;;;;;2215332;58;1304;-74
2022/10/01 21:15:39;;;;;;;;;;;;;;;;;;2212500;66;1455;-75
2022/10/01 21:18:17;;;;;;;;;;;;;;;;;;2212807;59;1367;-71
2022/10/01 21:20:58;;;;;;;;;;;;;;;;;;2215031;66;1933;-74
2022/10/01 21:23:35;;;;;;;;;;;;;;;;;;2211840;66;1123;-76
2022/10/01 21:26:23;;;;;;;;;;;;;;;;;;2216222;58;2058;-75
2022/10/01 21:29:11;;;;;;;;;;;;;;;;;;2215499;59;1132;-75
2022/10/01 21:31:48;;;;;;;;;;;;;;;;;;2215820;58;2079;-75
2022/10/01 21:34:25;;;;;;;;;;;;;;;;;;2216344;58;1230;-75
2022/10/01 21:37:03;;;;;;;;;;;;;;;;;;2217003;59;1217;-75
2022/10/01 21:39:41;;;;;;;;;;;;;;;;;;2215952;59;1259;-76
2022/10/01 21:42:25;;;;;;;;;;;;;;;;;;2215701;66;1992;-75
2022/10/01 21:45:10;;;;;;;;;;;;;;;;;;2215687;66;1169;-76
2022/10/01 21:47:49;;;;;;;;;;;;;;;;;;2216265;59;1277;-75
2022/10/01 21:50:27;;;;;;;;;;;;;;;;;;2215561;58;1689;-74
2022/10/01 21:53:12;;;;;;;;;;;;;;;;;;2213183;66;1348;-75
2022/10/01 21:56:02;;;;;;;;;;;;;;;;;;2212009;59;1477;-75
2022/10/01 21:58:46;;;;;;;;;;;;;;;;;;2213217;59;1278;-75
2022/10/01 22:01:23;;;;;;;;;;;;;;;;;;2216549;58;2755;-72
2022/10/01 22:04:00;;;;;;;;;;;;;;;;;;2212523;66;1522;-75
2022/10/01 22:06:57;;;;;;;;;;;;;;;;;;2212922;66;1198;-75
2022/10/01 22:44:15;;;;;;;;;;;;;;;;;;2284749;53;2125;-78
2022/10/01 22:47:05;;;;;;;;;;;;;;;;;;2211110;59;1267;-75
2022/10/01 22:49:47;;;;;;;;;;;;;;;;;;2210888;59;1267;-75
2022/10/01 22:52:25;;;;;;;;;;;;;;;;;;2210563;59;1326;-76
2022/10/01 22:55:06;;;;;;;;;;;;;;;;;;2211325;67;1262;-76
2022/10/01 22:57:48;;;;;;;;;;;;;;;;;;2211359;67;1191;-76